createdAt,value
2023-03-19T00:00:04.472Z,9.2
2023-03-19T00:05:00.996Z,9.3
2023-03-19T00:15:00.998Z,9.3
2023-03-19T00:30:01.004Z,9.3
2023-03-19T00:40:00.962Z,9.4
2023-03-19T00:45:01.019Z,9.5
2023-03-19T00:55:08.031Z,9.6
2023-03-19T01:30:01.041Z,9.3
2023-03-19T01:45:01.904Z,9.3
2023-03-19T01:55:01.032Z,9.2
2023-03-19T02:00:04.024Z,9.2
2023-03-19T02:15:01.306Z,9.1
2023-03-19T02:25:01.080Z,9.0
2023-03-19T02:30:02.762Z,8.9
2023-03-19T02:35:01.997Z,8.8
2023-03-19T02:40:00.879Z,8.7
2023-03-19T02:45:06.782Z,8.5
2023-03-19T02:50:00.878Z,8.4
2023-03-19T02:55:02.002Z,8.2
2023-03-19T03:00:02.751Z,8.1
2023-03-19T03:05:01.918Z,8.0
2023-03-19T03:10:00.892Z,7.9
2023-03-19T03:15:02.004Z,7.8
2023-03-19T03:20:01.798Z,7.7
2023-03-19T03:25:01.997Z,7.6
2023-03-19T03:30:00.974Z,7.5
2023-03-19T03:35:01.022Z,7.4
2023-03-19T03:40:01.048Z,7.3
2023-03-19T03:45:00.975Z,7.1
2023-03-19T03:50:01.623Z,7.0
2023-03-19T03:55:01.209Z,6.9
2023-03-19T04:00:03.621Z,6.9
2023-03-19T04:05:00.999Z,6.8
2023-03-19T04:10:01.975Z,6.7
2023-03-19T04:15:01.026Z,6.6
2023-03-19T04:20:00.931Z,6.5
2023-03-19T04:25:01.067Z,6.4
2023-03-19T04:30:01.692Z,6.3
2023-03-19T04:35:01.029Z,6.2
2023-03-19T04:40:00.959Z,6.1
2023-03-19T04:45:02.120Z,6.0
2023-03-19T04:55:01.103Z,5.9
2023-03-19T05:00:02.915Z,5.8
2023-03-19T05:10:01.096Z,5.7
2023-03-19T05:15:01.049Z,5.7
2023-03-19T05:25:01.112Z,5.8
2023-03-19T05:30:02.166Z,5.9
2023-03-19T05:35:01.070Z,6.0
2023-03-19T05:40:00.982Z,6.1
2023-03-19T05:45:01.003Z,6.2
2023-03-19T05:55:01.067Z,6.3
2023-03-19T06:00:02.778Z,6.4
2023-03-19T06:10:01.179Z,6.5
2023-03-19T06:15:01.415Z,6.6
2023-03-19T06:25:01.023Z,6.7
2023-03-19T06:30:01.052Z,6.7
2023-03-19T06:35:01.022Z,6.8
2023-03-19T06:45:01.286Z,6.9
2023-03-19T06:50:00.991Z,7.0
2023-03-19T06:55:01.022Z,7.1
2023-03-19T07:00:03.077Z,7.3
2023-03-19T07:05:01.333Z,7.4
2023-03-19T07:10:01.077Z,7.5
2023-03-19T07:15:01.180Z,7.7
2023-03-19T07:20:01.222Z,7.9
2023-03-19T07:25:02.068Z,8.1
2023-03-19T07:30:01.122Z,8.3
2023-03-19T07:35:01.186Z,8.7
2023-03-19T07:40:01.906Z,9.0
2023-03-19T07:45:01.094Z,9.5
2023-03-19T07:50:01.997Z,9.9
2023-03-19T07:55:01.301Z,10.4
2023-03-19T08:00:03.647Z,10.6
2023-03-19T08:05:01.262Z,10.9
2023-03-19T08:10:15.844Z,11.1
2023-03-19T08:40:00.587Z,11.8
2023-03-19T08:45:00.571Z,11.7
2023-03-19T09:00:01.408Z,11.7
2023-03-19T09:05:01.978Z,11.6
2023-03-19T09:10:01.516Z,11.7
2023-03-19T09:15:01.020Z,11.6
2023-03-19T09:50:00.504Z,12.3
2023-03-19T09:55:01.372Z,12.4
2023-03-19T10:00:04.084Z,12.4
2023-03-19T10:05:00.505Z,12.5
2023-03-19T10:15:00.495Z,12.6
2023-03-19T10:30:05.589Z,12.7
2023-03-19T10:40:01.484Z,12.8
2023-03-19T10:45:10.497Z,12.8
2023-03-19T10:55:00.432Z,12.9
2023-03-19T11:00:04.237Z,12.8
2023-03-19T11:05:01.421Z,12.9
2023-03-19T11:10:00.364Z,13.0
2023-03-19T11:15:00.497Z,13.2
2023-03-19T11:20:15.192Z,13.4
2023-03-19T11:50:00.843Z,13.2
2023-03-19T12:00:15.614Z,13.2
2023-03-19T12:30:00.506Z,13.2
2023-03-19T12:35:02.377Z,13.3
2023-03-19T12:45:00.421Z,13.4
2023-03-19T12:55:00.948Z,13.5
2023-03-19T13:00:00.549Z,13.5
2023-03-19T13:05:15.171Z,13.6
2023-03-19T13:30:16.068Z,14.6
2023-03-19T14:00:04.763Z,14.3
2023-03-19T14:05:00.772Z,14.1
2023-03-19T14:15:00.770Z,14.0
2023-03-19T14:25:00.964Z,13.9
2023-03-19T14:30:01.191Z,13.9
2023-03-19T14:45:00.883Z,13.9
2023-03-19T14:55:00.536Z,13.8
2023-03-19T15:00:03.155Z,13.8
2023-03-19T15:10:01.011Z,13.7
2023-03-19T15:15:01.198Z,13.6
2023-03-19T15:30:12.238Z,13.6
2023-03-19T15:35:00.912Z,13.5
2023-03-19T15:40:01.655Z,13.4
2023-03-19T15:45:01.653Z,13.3
2023-03-19T15:50:01.205Z,13.2
2023-03-19T15:55:00.751Z,13.1
2023-03-19T16:00:06.176Z,13.1
2023-03-19T16:10:00.789Z,13.0
2023-03-19T16:15:00.787Z,13.0
2023-03-19T16:20:02.683Z,13.1
2023-03-19T16:25:15.589Z,13.0
2023-03-19T16:50:01.740Z,12.0
2023-03-19T16:55:00.555Z,12.1
2023-03-19T17:00:00.616Z,12.1
2023-03-19T17:05:15.403Z,12.0
2023-03-19T17:30:02.543Z,11.4
2023-03-19T17:35:01.815Z,11.2
2023-03-19T17:45:01.159Z,11.0
2023-03-19T17:50:01.857Z,10.9
2023-03-19T17:55:02.116Z,10.7
2023-03-19T18:00:03.335Z,10.6
2023-03-19T18:05:01.187Z,10.3
2023-03-19T18:10:01.102Z,10.2
2023-03-19T18:15:01.229Z,10.1
2023-03-19T18:20:01.042Z,10.0
2023-03-19T18:25:02.237Z,9.9
2023-03-19T18:30:02.097Z,9.8
2023-03-19T18:35:01.203Z,9.7
2023-03-19T18:45:02.292Z,9.6
2023-03-19T18:50:01.981Z,9.5
2023-03-19T18:55:01.190Z,9.3
2023-03-19T19:00:03.886Z,9.2
2023-03-19T19:05:01.151Z,9.1
2023-03-19T19:10:01.200Z,9.0
2023-03-19T19:15:01.124Z,8.9
2023-03-19T19:20:01.109Z,8.8
2023-03-19T19:25:01.189Z,8.7
2023-03-19T19:30:02.153Z,8.7
2023-03-19T19:35:01.225Z,8.6
2023-03-19T19:45:01.155Z,8.4
2023-03-19T19:50:01.352Z,8.3
2023-03-19T19:55:02.112Z,8.2
2023-03-19T20:00:03.191Z,8.2
2023-03-19T20:05:01.169Z,8.1
2023-03-19T20:10:01.948Z,8.0
2023-03-19T20:15:01.287Z,8.0
2023-03-19T20:30:20.932Z,8.1
2023-03-19T21:00:00.869Z,7.8
2023-03-19T21:15:01.544Z,7.8
2023-03-19T21:20:00.953Z,7.7
2023-03-19T21:25:00.552Z,7.8
2023-03-19T21:30:01.179Z,7.8
2023-03-19T21:45:00.639Z,7.8
2023-03-19T22:00:03.650Z,7.7
2023-03-19T22:15:00.558Z,7.6
2023-03-19T22:20:00.509Z,7.7
2023-03-19T22:30:00.580Z,7.8
2023-03-19T22:45:01.997Z,7.8
2023-03-19T23:00:00.857Z,7.8
2023-03-19T23:05:01.553Z,7.7
2023-03-19T23:15:01.591Z,7.6
2023-03-19T23:20:00.704Z,7.5
2023-03-19T23:25:00.880Z,7.4
2023-03-19T23:30:00.805Z,7.4
2023-03-19T23:35:01.945Z,7.3
2023-03-19T23:45:00.733Z,7.2
2023-03-19T23:55:07.655Z,7.1
